< Typhoon 197113 1971 Season Typhoon 197115 >
Typhoon 197114 (JEAN)
General InformationTrack Information on Google Maps || Disaster Info.ResourceGoogle EarthGE AnimationAtom FeedGeoJSON
Detalied Best Track (Time Zone = UTC)
Year Month Day Hour Lat. Long. Pressure (hPa) Wind (kt) Class Image Chart
1971 7 8 18 9.0 140.0 1006 0 2 -- Chart
1971 7 9 00 9.5 140.0 1006 0 2 -- Chart
1971 7 9 06 10.0 139.5 1006 0 2 -- Chart
1971 7 9 12 10.7 140.2 1006 0 2 -- Chart
1971 7 9 18 11.0 139.0 1006 0 2 -- Chart
1971 7 10 00 11.2 138.0 1004 0 9 -- Chart
1971 7 10 06 11.3 137.3 1002 0 9 -- Chart
1971 7 10 12 11.3 136.3 998 0 9 -- Chart
1971 7 10 18 10.8 135.5 1000 0 9 -- Chart
1971 7 11 00 10.3 135.8 998 0 9 -- Chart
1971 7 11 06 9.8 135.8 1000 0 9 -- Chart
1971 7 11 12 9.4 135.3 1000 0 9 -- Chart
1971 7 11 18 9.2 134.7 1000 0 9 -- Chart
1971 7 12 00 9.0 134.2 998 0 9 -- Chart
1971 7 12 06 8.9 133.6 996 0 9 -- Chart
1971 7 12 12 9.0 132.6 992 0 9 -- Chart
1971 7 12 18 9.3 131.6 992 0 9 -- Chart
1971 7 13 00 9.7 130.7 990 0 9 -- Chart
1971 7 13 06 10.0 129.8 985 0 9 -- Chart
1971 7 13 12 10.5 128.7 985 0 9 -- Chart
1971 7 13 18 10.7 127.5 980 0 9 -- Chart
1971 7 14 00 11.2 126.3 980 0 9 -- Chart
1971 7 14 06 11.9 124.8 980 0 9 -- Chart
1971 7 14 12 12.4 123.7 985 0 9 -- Chart
1971 7 14 18 13.0 122.4 985 0 9 -- Chart
1971 7 15 00 13.6 120.1 985 0 9 -- Chart
1971 7 15 06 13.5 118.8 980 0 9 -- Chart
1971 7 15 12 14.3 117.8 980 0 9 -- Chart
1971 7 15 18 14.5 116.1 980 0 9 -- Chart
1971 7 16 00 14.5 115.0 980 0 9 -- Chart
1971 7 16 06 14.8 114.0 980 0 9 -- Chart
1971 7 16 12 15.6 112.7 980 0 9 -- Chart
1971 7 16 18 16.3 111.9 975 0 9 -- Chart
1971 7 17 00 17.0 111.0 980 0 9 -- Chart
1971 7 17 06 17.9 110.2 980 0 9 -- Chart
1971 7 17 12 18.4 109.8 980 0 9 -- Chart
1971 7 17 18 19.5 108.1 985 0 9 -- Chart
1971 7 18 00 20.0 107.0 985 0 9 -- Chart
1971 7 18 06 20.5 105.5 985 0 9 -- Chart
1971 7 18 12 21.0 104.2 992 0 9 -- Chart
1971 7 18 18 21.0 102.8 996 0 2 -- Chart
1971 7 19 00 21.0 101.0 1000 0 2 -- Chart
Japan Meteorological Agency Best Track Data | Correction Date : 1989-06-01
< Typhoon 197113 1971 Season Typhoon 197115 >

Help